createdAt,value
2022-09-18T00:01:43.440Z,98198.12
2022-09-18T00:04:13.847Z,98200.06
2022-09-18T00:06:41.445Z,98201.81
2022-09-18T00:09:09.683Z,98191.84
2022-09-18T00:11:39.978Z,98186.25
2022-09-18T00:14:07.917Z,98194.31
2022-09-18T00:16:35.441Z,98187.09
2022-09-18T00:19:03.021Z,98190.72
2022-09-18T00:21:31.957Z,98181.81
2022-09-18T00:23:59.824Z,98189.50
2022-09-18T00:26:27.586Z,98184.59
2022-09-18T00:28:55.211Z,98192.78
2022-09-18T00:31:26.318Z,98189.03
2022-09-18T00:33:54.032Z,98180.13
2022-09-18T00:36:21.336Z,98189.06
2022-09-18T00:38:48.575Z,98192.94
2022-09-18T00:41:23.892Z,98189.53
2022-09-18T00:43:54.182Z,98198.84
2022-09-18T00:46:29.222Z,98185.75
2022-09-18T00:49:18.885Z,98195.69
2022-09-18T00:51:46.759Z,98191.28
2022-09-18T00:54:24.327Z,98186.59
2022-09-18T00:56:52.863Z,98190.84
2022-09-18T00:59:22.541Z,98184.47
2022-09-18T01:01:49.688Z,98189.16
2022-09-18T01:04:17.093Z,98194.34
2022-09-18T01:06:46.855Z,98202.59
2022-09-18T01:09:27.965Z,98211.34
2022-09-18T01:12:00.732Z,98209.63
2022-09-18T01:14:27.834Z,98205.28
2022-09-18T01:16:55.024Z,98216.50
2022-09-18T01:19:40.990Z,98219.31
2022-09-18T01:22:25.884Z,98225.22
2022-09-18T01:24:53.266Z,98218.81
2022-09-18T01:27:43.383Z,98226.38
2022-09-18T01:30:11.391Z,98239.19
2022-09-18T01:32:41.491Z,98240.31
2022-09-18T01:35:36.900Z,98246.00
2022-09-18T01:38:15.830Z,98255.13
2022-09-18T01:40:44.795Z,98264.78
2022-09-18T01:43:13.223Z,98261.75
2022-09-18T01:45:43.015Z,98269.53
2022-09-18T01:48:13.000Z,98275.66
2022-09-18T01:50:45.567Z,98283.12
2022-09-18T01:53:20.124Z,98287.22
2022-09-18T01:55:50.143Z,98293.53
2022-09-18T01:58:19.062Z,98291.47
2022-09-18T02:00:48.710Z,98291.13
2022-09-18T02:03:16.893Z,98296.59
2022-09-18T02:05:45.801Z,98289.47
2022-09-18T02:08:32.618Z,98299.22
2022-09-18T02:11:13.594Z,98310.34
2022-09-18T02:13:45.307Z,98314.91
2022-09-18T02:16:15.215Z,98321.56
2022-09-18T02:18:43.885Z,98313.41
2022-09-18T02:21:12.132Z,98309.91
2022-09-18T02:23:39.974Z,98321.53
2022-09-18T02:26:07.425Z,98324.41
2022-09-18T02:28:34.958Z,98331.31
2022-09-18T02:31:02.182Z,98321.69
2022-09-18T02:33:32.467Z,98333.28
2022-09-18T02:36:21.135Z,98334.03
2022-09-18T02:38:55.309Z,98345.72
2022-09-18T02:41:29.565Z,98345.78
2022-09-18T02:44:06.135Z,98353.53
2022-09-18T02:46:47.238Z,98347.09
2022-09-18T02:49:17.162Z,98351.41
2022-09-18T02:51:52.515Z,98341.03
2022-09-18T02:54:27.229Z,98352.72
2022-09-18T02:57:11.715Z,98351.28
2022-09-18T02:59:39.568Z,98346.78
2022-09-18T03:02:07.661Z,98343.25
2022-09-18T03:04:35.166Z,98350.94
2022-09-18T03:07:02.403Z,98358.00
2022-09-18T03:09:30.111Z,98358.53
2022-09-18T03:11:57.694Z,98347.25
2022-09-18T03:14:25.801Z,98358.88
2022-09-18T03:16:53.211Z,98357.22
2022-09-18T03:19:20.367Z,98359.94
2022-09-18T03:21:47.667Z,98365.00
2022-09-18T03:24:15.147Z,98377.78
2022-09-18T03:26:42.648Z,98377.91
2022-09-18T03:29:10.209Z,98378.31
2022-09-18T03:31:38.728Z,98377.06
2022-09-18T03:34:06.370Z,98382.75
2022-09-18T03:36:33.544Z,98388.84
2022-09-18T03:39:01.191Z,98386.19
2022-09-18T03:41:29.459Z,98390.84
2022-09-18T03:43:56.833Z,98392.78
2022-09-18T03:46:24.630Z,98390.47
2022-09-18T03:48:52.386Z,98402.69
2022-09-18T03:51:22.026Z,98394.31
2022-09-18T03:53:51.120Z,98405.47
2022-09-18T03:56:18.560Z,98409.19
2022-09-18T03:58:48.769Z,98409.22
2022-09-18T04:01:17.324Z,98409.41
2022-09-18T04:03:46.625Z,98407.78
2022-09-18T04:06:19.085Z,98410.00
2022-09-18T04:08:50.082Z,98418.53
2022-09-18T04:11:19.613Z,98411.88
2022-09-18T04:13:46.840Z,98414.13
2022-09-18T04:16:14.335Z,98409.78
2022-09-18T04:18:41.560Z,98425.84
2022-09-18T04:21:08.877Z,98424.78
2022-09-18T04:23:36.338Z,98425.91
2022-09-18T04:26:09.044Z,98427.16
2022-09-18T04:28:39.794Z,98422.87
2022-09-18T04:31:07.200Z,98424.16
2022-09-18T04:33:34.431Z,98428.72
2022-09-18T04:36:05.906Z,98431.22
2022-09-18T04:38:34.530Z,98425.44
2022-09-18T04:41:01.770Z,98438.69
2022-09-18T04:43:30.045Z,98441.88
2022-09-18T04:45:57.199Z,98434.94
2022-09-18T04:48:24.330Z,98439.44
2022-09-18T04:50:51.907Z,98449.41
2022-09-18T04:53:19.167Z,98445.91
2022-09-18T04:55:47.020Z,98456.50
2022-09-18T04:58:16.389Z,98455.53
2022-09-18T05:00:43.982Z,98448.78
2022-09-18T05:03:11.216Z,98452.50
2022-09-18T05:05:38.970Z,98447.19
2022-09-18T05:08:06.518Z,98465.25
2022-09-18T05:10:34.287Z,98466.91
2022-09-18T05:13:03.745Z,98452.41
2022-09-18T05:15:31.197Z,98464.28
2022-09-18T05:18:01.574Z,98469.25
2022-09-18T05:20:30.173Z,98467.75
2022-09-18T05:23:00.195Z,98463.53
2022-09-18T05:25:29.018Z,98462.97
2022-09-18T05:27:57.202Z,98470.50
2022-09-18T05:30:24.852Z,98463.34
2022-09-18T05:32:58.959Z,98473.78
2022-09-18T05:35:27.534Z,98478.06
2022-09-18T05:37:55.046Z,98467.06
2022-09-18T05:40:23.861Z,98471.22
2022-09-18T05:42:53.157Z,98467.00
2022-09-18T05:45:20.885Z,98477.19
2022-09-18T05:47:58.176Z,98469.78
2022-09-18T05:50:26.387Z,98470.13
2022-09-18T05:53:12.769Z,98476.41
2022-09-18T05:55:40.666Z,98480.94
2022-09-18T05:58:13.078Z,98478.84
2022-09-18T06:00:40.873Z,98481.91
2022-09-18T06:03:14.326Z,98471.25
2022-09-18T06:05:41.685Z,98489.03
2022-09-18T06:08:11.082Z,98477.94
2022-09-18T06:10:39.455Z,98482.41
2022-09-18T06:13:07.864Z,98486.72
2022-09-18T06:15:39.735Z,98484.00
2022-09-18T06:18:09.169Z,98498.56
2022-09-18T06:20:36.816Z,98490.34
2022-09-18T06:23:04.346Z,98504.09
2022-09-18T06:25:33.080Z,98506.91
2022-09-18T06:28:00.526Z,98498.69
2022-09-18T06:30:28.496Z,98509.00
2022-09-18T06:32:56.919Z,98512.34
2022-09-18T06:35:24.468Z,98513.31
2022-09-18T06:37:51.644Z,98514.97
2022-09-18T06:40:19.044Z,98514.16
2022-09-18T06:42:46.941Z,98516.28
2022-09-18T06:45:15.315Z,98503.38
2022-09-18T06:47:44.496Z,98501.72
2022-09-18T06:50:12.562Z,98504.53
2022-09-18T06:52:39.745Z,98498.34
2022-09-18T06:55:07.010Z,98509.56
2022-09-18T06:57:34.398Z,98492.25
2022-09-18T07:00:01.645Z,98511.31
2022-09-18T07:02:29.111Z,98496.78
2022-09-18T07:04:58.222Z,98496.78
2022-09-18T07:07:25.440Z,98498.84
2022-09-18T07:09:52.846Z,98509.06
2022-09-18T07:12:21.380Z,98510.31
2022-09-18T07:14:48.702Z,98498.13
2022-09-18T07:17:19.124Z,98506.44
2022-09-18T07:19:48.957Z,98515.59
2022-09-18T07:22:16.400Z,98522.03
2022-09-18T07:24:43.679Z,98502.19
2022-09-18T07:27:11.139Z,98513.81
2022-09-18T07:29:40.530Z,98531.31
2022-09-18T07:32:08.519Z,98527.03
2022-09-18T07:34:37.725Z,98518.47
2022-09-18T07:37:04.912Z,98521.69
2022-09-18T07:39:32.082Z,98523.75
2022-09-18T07:42:05.648Z,98551.94
2022-09-18T07:44:36.694Z,98533.22
2022-09-18T07:47:04.292Z,98539.78
2022-09-18T07:49:33.050Z,98543.91
2022-09-18T07:52:01.936Z,98535.31
2022-09-18T07:54:30.285Z,98545.03
2022-09-18T07:56:58.012Z,98545.66
2022-09-18T07:59:27.227Z,98533.88
2022-09-18T08:01:56.014Z,98529.16
2022-09-18T08:04:24.115Z,98553.19
2022-09-18T08:07:03.402Z,98539.63
2022-09-18T08:09:31.406Z,98547.81
2022-09-18T08:11:58.787Z,98546.19
2022-09-18T08:14:28.891Z,98561.13
2022-09-18T08:16:57.909Z,98565.38
2022-09-18T08:19:25.157Z,98555.34
2022-09-18T08:21:52.623Z,98551.22
2022-09-18T08:24:22.001Z,98550.22
2022-09-18T08:26:51.050Z,98550.06
2022-09-18T08:29:19.437Z,98559.16
2022-09-18T08:31:48.658Z,98550.66
2022-09-18T08:34:16.000Z,98561.37
2022-09-18T08:36:43.531Z,98554.28
2022-09-18T08:39:11.209Z,98551.25
2022-09-18T08:41:55.650Z,98553.41
2022-09-18T08:44:26.080Z,98552.94
2022-09-18T08:47:04.947Z,98562.16
2022-09-18T08:49:41.180Z,98565.78
2022-09-18T08:52:17.444Z,98558.63
2022-09-18T08:54:56.256Z,98563.31
2022-09-18T08:57:28.204Z,98574.44
2022-09-18T08:59:59.282Z,98572.09
2022-09-18T09:02:52.915Z,98566.06
2022-09-18T09:05:21.485Z,98569.75
2022-09-18T09:08:12.103Z,98576.81
2022-09-18T09:10:39.491Z,98571.91
2022-09-18T09:13:13.499Z,98581.63
2022-09-18T09:16:00.102Z,98584.34
2022-09-18T09:18:38.612Z,98583.66
2022-09-18T09:21:13.540Z,98583.37
2022-09-18T09:23:59.599Z,98584.37
2022-09-18T09:26:34.392Z,98582.84
2022-09-18T09:29:04.401Z,98575.53
2022-09-18T09:31:38.726Z,98584.00
2022-09-18T09:34:19.794Z,98581.50
2022-09-18T09:36:48.440Z,98585.13
2022-09-18T09:39:36.320Z,98571.44
2022-09-18T09:42:08.896Z,98597.38
2022-09-18T09:44:38.343Z,98586.91
2022-09-18T09:47:06.089Z,98583.00
2022-09-18T09:49:39.127Z,98591.34
2022-09-18T09:52:12.832Z,98604.00
2022-09-18T09:54:41.480Z,98606.66
2022-09-18T09:57:09.250Z,98613.56
2022-09-18T09:59:37.058Z,98606.06
2022-09-18T10:02:18.045Z,98599.03
2022-09-18T10:04:54.578Z,98609.50
2022-09-18T10:07:23.777Z,98591.72
2022-09-18T10:09:58.249Z,98602.75
2022-09-18T10:12:44.509Z,98619.69
2022-09-18T10:15:14.198Z,98609.84
2022-09-18T10:17:41.477Z,98623.91
2022-09-18T10:20:11.505Z,98606.63
2022-09-18T10:22:39.157Z,98606.72
2022-09-18T10:25:07.832Z,98621.19
2022-09-18T10:27:35.891Z,98623.06
2022-09-18T10:30:13.395Z,98612.44
2022-09-18T10:32:44.233Z,98604.91
2022-09-18T10:35:38.360Z,98610.34
2022-09-18T10:38:09.981Z,98608.59
2022-09-18T10:40:39.761Z,98621.81
2022-09-18T10:43:07.618Z,98620.91
2022-09-18T10:45:38.150Z,98609.03
2022-09-18T10:48:13.823Z,98606.91
2022-09-18T10:50:51.807Z,98612.53
2022-09-18T10:53:30.696Z,98612.47
2022-09-18T10:56:03.399Z,98623.63
2022-09-18T10:58:31.854Z,98621.91
2022-09-18T11:01:00.562Z,98623.03
2022-09-18T11:03:40.434Z,98620.53
2022-09-18T11:06:18.365Z,98619.69
2022-09-18T11:08:46.887Z,98620.28
2022-09-18T11:11:22.863Z,98622.63
2022-09-18T11:13:51.664Z,98620.25
2022-09-18T11:16:25.266Z,98622.63
2022-09-18T11:19:07.610Z,98617.97
2022-09-18T11:21:47.023Z,98622.94
2022-09-18T11:24:20.077Z,98630.63
2022-09-18T11:26:50.426Z,98624.81
2022-09-18T11:29:19.119Z,98622.25
2022-09-18T11:31:46.992Z,98628.69
2022-09-18T11:34:18.055Z,98619.91
2022-09-18T11:36:46.741Z,98620.94
2022-09-18T11:39:15.493Z,98623.75
2022-09-18T11:41:43.262Z,98612.69
2022-09-18T11:44:37.454Z,98614.59
2022-09-18T11:47:09.792Z,98618.25
2022-09-18T11:49:42.213Z,98608.84
2022-09-18T11:52:16.044Z,98603.88
2022-09-18T11:54:49.596Z,98608.97
2022-09-18T11:57:17.955Z,98615.22
2022-09-18T11:59:48.541Z,98607.50
2022-09-18T12:02:21.944Z,98604.72
2022-09-18T12:04:56.392Z,98601.41
2022-09-18T12:07:40.902Z,98595.72
2022-09-18T12:10:14.748Z,98597.03
2022-09-18T12:12:47.633Z,98592.63
2022-09-18T12:15:25.577Z,98590.25
2022-09-18T12:17:54.503Z,98589.84
2022-09-18T12:20:40.244Z,98590.66
2022-09-18T12:23:12.448Z,98590.28
2022-09-18T12:25:58.711Z,98586.91
2022-09-18T12:28:38.956Z,98590.87
2022-09-18T12:31:12.824Z,98580.41
2022-09-18T12:33:55.979Z,98586.19
2022-09-18T12:36:41.849Z,98569.56
2022-09-18T12:39:14.806Z,98578.81
2022-09-18T12:41:42.259Z,98585.25
2022-09-18T12:44:14.183Z,98590.09
2022-09-18T12:46:41.253Z,98586.75
2022-09-18T12:49:27.157Z,98582.28
2022-09-18T12:52:01.934Z,98580.12
2022-09-18T12:54:32.346Z,98576.31
2022-09-18T12:57:05.925Z,98588.31
2022-09-18T12:59:39.129Z,98572.47
2022-09-18T13:02:06.174Z,98581.19
2022-09-18T13:04:35.770Z,98576.34
2022-09-18T13:07:14.125Z,98584.25
2022-09-18T13:09:44.593Z,98585.31
2022-09-18T13:12:12.915Z,98583.78
2022-09-18T13:14:44.517Z,98588.72
2022-09-18T13:17:16.788Z,98587.62
2022-09-18T13:19:53.047Z,98587.12
2022-09-18T13:22:20.432Z,98592.22
2022-09-18T13:24:48.803Z,98595.53
2022-09-18T13:27:16.501Z,98598.87
2022-09-18T13:29:53.053Z,98599.91
2022-09-18T13:32:21.380Z,98600.41
2022-09-18T13:34:52.986Z,98608.31
2022-09-18T13:37:22.717Z,98613.28
2022-09-18T13:40:09.195Z,98616.38
2022-09-18T13:42:41.256Z,98631.16
2022-09-18T13:45:14.950Z,98663.84
2022-09-18T13:48:01.851Z,98697.34
2022-09-18T13:50:29.317Z,98712.44
2022-09-18T13:52:57.469Z,98722.38
2022-09-18T13:55:26.694Z,98726.97
2022-09-18T13:58:12.628Z,98728.66
2022-09-18T14:00:40.253Z,98739.91
2022-09-18T14:03:07.697Z,98745.06
2022-09-18T14:05:35.664Z,98746.84
2022-09-18T14:08:04.613Z,98723.06
2022-09-18T14:10:37.156Z,98706.09
2022-09-18T14:13:06.373Z,98712.19
2022-09-18T14:15:33.812Z,98705.84
2022-09-18T14:18:11.737Z,98702.78
2022-09-18T14:20:39.175Z,98698.28
2022-09-18T14:23:41.421Z,98705.44
2022-09-18T14:26:09.179Z,98716.00
2022-09-18T14:28:36.408Z,98724.16
2022-09-18T14:31:18.084Z,98729.75
2022-09-18T14:33:45.558Z,98737.25
2022-09-18T14:36:14.736Z,98739.34
2022-09-18T14:38:42.248Z,98740.00
2022-09-18T14:41:16.054Z,98732.75
2022-09-18T14:43:47.393Z,98731.13
2022-09-18T14:46:18.991Z,98735.00
2022-09-18T14:48:46.138Z,98747.34
2022-09-18T14:51:19.255Z,98710.44
2022-09-18T14:53:49.972Z,98723.66
2022-09-18T14:56:18.386Z,98720.25
2022-09-18T14:58:46.671Z,98711.06
2022-09-18T15:01:15.265Z,98711.94
2022-09-18T15:03:43.790Z,98711.53
2022-09-18T15:06:24.279Z,98705.84
2022-09-18T15:08:52.425Z,98695.44
2022-09-18T15:11:20.494Z,98703.44
2022-09-18T15:13:49.028Z,98691.16
2022-09-18T15:16:21.405Z,98682.13
2022-09-18T15:18:49.359Z,98676.88
2022-09-18T15:21:23.918Z,98680.00
2022-09-18T15:23:51.081Z,98692.94
2022-09-18T15:26:18.672Z,98697.66
2022-09-18T15:28:47.581Z,98698.22
2022-09-18T15:31:14.784Z,98694.53
2022-09-18T15:33:49.560Z,98695.88
2022-09-18T15:36:21.538Z,98700.22
2022-09-18T15:38:48.980Z,98705.72
2022-09-18T15:41:22.238Z,98697.47
2022-09-18T15:43:50.465Z,98710.00
2022-09-18T15:46:24.658Z,98717.09
2022-09-18T15:48:52.154Z,98712.22
2022-09-18T15:51:26.148Z,98732.06
2022-09-18T15:54:05.591Z,98713.69
2022-09-18T15:56:34.092Z,98715.50
2022-09-18T15:59:04.067Z,98726.91
2022-09-18T16:01:35.620Z,98723.69
2022-09-18T16:04:08.447Z,98734.22
2022-09-18T16:06:37.843Z,98742.00
2022-09-18T16:09:05.527Z,98753.75
2022-09-18T16:11:32.583Z,98754.38
2022-09-18T16:13:59.722Z,98747.12
2022-09-18T16:16:27.231Z,98751.87
2022-09-18T16:18:56.337Z,98758.94
2022-09-18T16:21:24.603Z,98766.91
2022-09-18T16:23:54.916Z,98753.22
2022-09-18T16:26:24.711Z,98757.19
2022-09-18T16:28:56.268Z,98747.78
2022-09-18T16:31:24.782Z,98741.25
2022-09-18T16:33:52.713Z,98742.22
2022-09-18T16:36:34.133Z,98736.41
2022-09-18T16:39:03.901Z,98742.56
2022-09-18T16:41:31.170Z,98734.75
2022-09-18T16:43:58.318Z,98749.09
2022-09-18T16:46:27.857Z,98734.53
2022-09-18T16:48:55.041Z,98732.69
2022-09-18T16:51:22.799Z,98733.72
2022-09-18T16:53:50.228Z,98728.84
2022-09-18T16:56:17.794Z,98730.94
2022-09-18T16:58:44.919Z,98731.34
2022-09-18T17:01:12.367Z,98740.97
2022-09-18T17:03:39.581Z,98741.19
2022-09-18T17:06:06.752Z,98735.25
2022-09-18T17:08:34.534Z,98731.16
2022-09-18T17:11:02.228Z,98738.88
2022-09-18T17:13:29.807Z,98741.41
2022-09-18T17:16:01.576Z,98739.97
2022-09-18T17:18:32.943Z,98738.44
2022-09-18T17:21:01.660Z,98751.66
2022-09-18T17:23:31.346Z,98738.38
2022-09-18T17:26:09.716Z,98747.50
2022-09-18T17:28:37.802Z,98747.62
2022-09-18T17:31:10.165Z,98743.56
2022-09-18T17:33:38.490Z,98751.09
2022-09-18T17:36:06.788Z,98735.87
2022-09-18T17:38:35.307Z,98747.41
2022-09-18T17:41:03.856Z,98750.03
2022-09-18T17:43:32.904Z,98751.41
2022-09-18T17:46:01.162Z,98759.25
2022-09-18T17:48:29.738Z,98759.72
2022-09-18T17:51:00.994Z,98764.97
2022-09-18T17:53:31.200Z,98768.66
2022-09-18T17:55:59.470Z,98779.06
2022-09-18T17:58:27.556Z,98775.09
2022-09-18T18:00:55.693Z,98773.69
2022-09-18T18:03:24.177Z,98778.34
2022-09-18T18:05:51.867Z,98786.72
2022-09-18T18:08:19.292Z,98786.78
2022-09-18T18:10:47.046Z,98794.50
2022-09-18T18:13:17.926Z,98798.13
2022-09-18T18:15:45.272Z,98804.31
2022-09-18T18:18:14.010Z,98797.22
2022-09-18T18:20:49.344Z,98783.78
2022-09-18T18:23:17.113Z,98785.72
2022-09-18T18:25:44.258Z,98792.28
2022-09-18T18:28:12.054Z,98796.81
2022-09-18T18:30:40.030Z,98792.75
2022-09-18T18:33:07.557Z,98788.63
2022-09-18T18:35:35.323Z,98796.00
2022-09-18T18:38:05.444Z,98795.28
2022-09-18T18:40:33.067Z,98800.94
2022-09-18T18:43:00.555Z,98795.88
2022-09-18T18:45:28.386Z,98793.75
2022-09-18T18:47:56.159Z,98793.59
2022-09-18T18:50:23.758Z,98799.09
2022-09-18T18:52:52.631Z,98804.22
2022-09-18T18:55:20.296Z,98799.44
2022-09-18T18:57:47.877Z,98807.66
2022-09-18T19:00:15.536Z,98809.63
2022-09-18T19:02:44.297Z,98811.78
2022-09-18T19:05:13.508Z,98811.97
2022-09-18T19:07:41.061Z,98802.00
2022-09-18T19:10:08.462Z,98805.94
2022-09-18T19:12:36.813Z,98805.06
2022-09-18T19:15:04.460Z,98805.00
2022-09-18T19:17:31.867Z,98796.53
2022-09-18T19:19:59.254Z,98800.12
2022-09-18T19:22:27.008Z,98808.03
2022-09-18T19:24:54.316Z,98807.78
2022-09-18T19:27:21.656Z,98805.56
2022-09-18T19:29:49.296Z,98808.19
2022-09-18T19:32:19.023Z,98806.31
2022-09-18T19:34:46.207Z,98802.41
2022-09-18T19:37:16.692Z,98807.56
2022-09-18T19:39:49.034Z,98806.31
2022-09-18T19:42:17.259Z,98808.41
2022-09-18T19:44:48.414Z,98804.28
2022-09-18T19:47:24.729Z,98804.78
2022-09-18T19:49:52.322Z,98804.84
2022-09-18T19:52:20.701Z,98803.28
2022-09-18T19:54:48.254Z,98802.69
2022-09-18T19:57:16.073Z,98801.91
2022-09-18T19:59:43.762Z,98803.13
2022-09-18T20:02:12.441Z,98801.47
2022-09-18T20:04:41.011Z,98795.59
2022-09-18T20:07:08.549Z,98786.41
2022-09-18T20:09:35.700Z,98788.81
2022-09-18T20:12:03.542Z,98783.16
2022-09-18T20:14:30.690Z,98784.88
2022-09-18T20:16:58.105Z,98776.81
2022-09-18T20:19:26.082Z,98790.88
2022-09-18T20:21:53.410Z,98792.56
2022-09-18T20:24:20.637Z,98780.81
2022-09-18T20:26:48.013Z,98788.87
2022-09-18T20:29:16.385Z,98776.53
2022-09-18T20:31:45.906Z,98771.72
2022-09-18T20:34:13.961Z,98771.97
2022-09-18T20:36:41.095Z,98778.47
2022-09-18T20:39:08.751Z,98773.09
2022-09-18T20:41:36.159Z,98775.19
2022-09-18T20:44:05.266Z,98772.28
2022-09-18T20:46:36.920Z,98769.41
2022-09-18T20:49:05.189Z,98763.19
2022-09-18T20:51:34.794Z,98768.22
2022-09-18T20:54:02.437Z,98765.87
2022-09-18T20:56:30.804Z,98770.75
2022-09-18T20:58:58.052Z,98762.19
2022-09-18T21:01:26.413Z,98751.66
2022-09-18T21:03:57.762Z,98758.66
2022-09-18T21:06:25.924Z,98754.00
2022-09-18T21:08:54.157Z,98752.25
2022-09-18T21:11:23.110Z,98750.13
2022-09-18T21:13:57.771Z,98756.53
2022-09-18T21:16:26.166Z,98749.56
2022-09-18T21:18:55.686Z,98742.84
2022-09-18T21:21:22.828Z,98746.16
2022-09-18T21:24:02.354Z,98741.44
2022-09-18T21:26:33.179Z,98742.03
2022-09-18T21:29:01.837Z,98748.88
2022-09-18T21:31:29.439Z,98740.34
2022-09-18T21:33:59.208Z,98734.50
2022-09-18T21:36:27.081Z,98737.63
2022-09-18T21:38:55.482Z,98719.13
2022-09-18T21:41:23.026Z,98718.63
2022-09-18T21:43:51.135Z,98708.72
2022-09-18T21:46:19.380Z,98706.72
2022-09-18T21:48:47.512Z,98717.38
2022-09-18T21:51:15.675Z,98706.13
2022-09-18T21:53:43.200Z,98703.88
2022-09-18T21:56:17.171Z,98700.94
2022-09-18T21:58:45.118Z,98706.00
2022-09-18T22:01:15.681Z,98701.03
2022-09-18T22:03:50.480Z,98721.00
2022-09-18T22:06:18.760Z,98719.97
2022-09-18T22:08:50.088Z,98706.31
2022-09-18T22:11:18.544Z,98707.63
2022-09-18T22:13:46.481Z,98701.03
2022-09-18T22:16:14.134Z,98708.06
2022-09-18T22:18:41.472Z,98702.31
2022-09-18T22:21:20.412Z,98700.34
2022-09-18T22:23:48.414Z,98695.06
2022-09-18T22:26:15.988Z,98701.06
2022-09-18T22:28:46.198Z,98704.22
2022-09-18T22:31:13.346Z,98706.37
2022-09-18T22:33:40.721Z,98711.06
2022-09-18T22:36:08.024Z,98710.31
2022-09-18T22:38:35.153Z,98706.28
2022-09-18T22:41:03.222Z,98709.19
2022-09-18T22:43:30.385Z,98707.72
2022-09-18T22:46:01.104Z,98708.28
2022-09-18T22:48:28.763Z,98707.72
2022-09-18T22:50:55.944Z,98707.66
2022-09-18T22:53:23.117Z,98707.50
2022-09-18T22:55:50.514Z,98701.25
2022-09-18T22:58:17.839Z,98710.84
2022-09-18T23:00:44.981Z,98722.00
2022-09-18T23:03:12.713Z,98706.66
2022-09-18T23:05:40.150Z,98710.94
2022-09-18T23:08:08.580Z,98696.81
2022-09-18T23:10:36.357Z,98699.44
2022-09-18T23:13:03.506Z,98704.72
2022-09-18T23:15:30.630Z,98703.69
2022-09-18T23:17:58.015Z,98706.94
2022-09-18T23:20:25.144Z,98714.13
2022-09-18T23:22:52.279Z,98709.28
2022-09-18T23:25:19.704Z,98699.59
2022-09-18T23:27:46.831Z,98710.91
2022-09-18T23:30:13.949Z,98714.41
2022-09-18T23:32:42.431Z,98709.84
2022-09-18T23:35:09.730Z,98707.75
2022-09-18T23:37:36.852Z,98709.34
2022-09-18T23:40:04.482Z,98695.97
2022-09-18T23:42:31.674Z,98685.31
2022-09-18T23:44:58.769Z,98699.44
2022-09-18T23:47:26.160Z,98685.53
2022-09-18T23:49:53.274Z,98701.41
2022-09-18T23:52:20.401Z,98699.78
2022-09-18T23:54:47.800Z,98693.03
2022-09-18T23:57:14.915Z,98687.38
2022-09-18T23:59:42.080Z,98678.69
